EW4117 Gor ES current weather conditions

sailwx.info

Wind from 268 at 7 knots gusting 13

Air temperature 4.4° C
Dewpoint 2.8° C

Last reported at 2019-Jan-23 21:02 UTC.
Time now 2019-Jan-23 21:50 UTC

Location: N 37°22' W 002°59'.
View on Google Maps.

See reports from other nearby stations

  
Tides and Currents Weather Stations Pressure Air Temp Water Temp Dewpoint Dewpoint Depression Visibility Wind Speed Wind Dir Waves Ship Positions
date/time (UTC)wind fromknots sea level pressurealtimeterstation pressurevisibilityair tempwater tempwave heightnotes
2019-Jan-23 21:02 268 7 gusting 13 4.4
2019-Jan-23 20:46 258 9 gusting 18 4.4
2019-Jan-23 20:32 300 9 gusting 16 4.4
2019-Jan-23 20:16 276 8 gusting 14 4.4
2019-Jan-23 20:02 255 10 gusting 16 4.4
2019-Jan-23 19:47 256 7 gusting 13 4.4
2019-Jan-23 19:31 240 6 gusting 16 4.4
2019-Jan-23 19:16 252 7 gusting 13 3.9
2019-Jan-23 19:01 243 9 gusting 14 3.9
2019-Jan-23 18:46 258 7 gusting 14 3.9
2019-Jan-23 18:32 251 7 gusting 13 3.9
2019-Jan-23 18:16 261 9 gusting 17 3.9
2019-Jan-23 18:01 231 5 gusting 13 3.9
2019-Jan-23 17:46 257 9 gusting 15 3.9
2019-Jan-23 17:30 245 9 gusting 15 3.3
2019-Jan-23 17:16 260 6 gusting 15 3.3
2019-Jan-23 17:01 253 9 gusting 18 3.3
2019-Jan-23 16:46 265 10 gusting 17 3.3
2019-Jan-23 16:32 249 6 gusting 18 3.3
2019-Jan-23 16:15 269 7 gusting 18 3.3
2019-Jan-23 16:00 260 9 gusting 16 2.8
2019-Jan-23 15:46 255 6 gusting 14 2.8
2019-Jan-23 15:31 237 6 gusting 13 2.8
2019-Jan-23 15:15 247 5 gusting 16 2.8
2019-Jan-23 15:02 236 6 gusting 14 2.8
2019-Jan-23 14:46 268 9 gusting 16 2.8
2019-Jan-23 14:30 244 9 gusting 14 2.2
2019-Jan-23 14:15 273 9 gusting 15 2.2
2019-Jan-23 14:00 255 9 gusting 17 2.2
2019-Jan-23 13:45 272 6 gusting 16 2.2
2019-Jan-23 13:30 291 6 gusting 12 2.2
2019-Jan-23 13:15 276 6 gusting 13 2.2
2019-Jan-23 13:00 269 5 gusting 11 1.7
2019-Jan-23 12:45 287 8 gusting 15 1.7
2019-Jan-23 12:31 262 9 gusting 14 1.7
2019-Jan-23 12:15 252 8 gusting 14 1.7
2019-Jan-23 12:00 255 5 gusting 13 1.7
2019-Jan-23 11:45 316 7 gusting 13 1.7
2019-Jan-23 11:30 300 6 gusting 10 1.7
2019-Jan-23 11:15 269 7 gusting 13 1.1
2019-Jan-23 11:00 293 3 gusting 8 1.1
2019-Jan-23 10:45 250 6 gusting 13 1.1
2019-Jan-23 10:30 252 6 gusting 13 1.1
2019-Jan-23 10:15 297 6 gusting 12 1.1
2019-Jan-23 10:00 243 6 gusting 11 1.1
2019-Jan-23 09:45 244 5 gusting 8 0.6
2019-Jan-23 09:30 252 4 gusting 9 0.6
2019-Jan-23 09:16 252 6 gusting 13 0.6
2019-Jan-23 09:01 245 6 gusting 13 0.6
2019-Jan-23 08:46 266 6 gusting 16 0.6
2019-Jan-23 08:31 273 6 gusting 12 0.6
2019-Jan-23 08:16 297 5 gusting 15 0.6
2019-Jan-23 08:01 285 5 gusting 13 0.6
2019-Jan-23 07:48 278 6 gusting 12 0.6
2019-Jan-23 07:31 298 7 gusting 14 0.6
2019-Jan-23 07:16 323 6 gusting 13 0.6
2019-Jan-23 07:01 279 8 gusting 14 0.6
2019-Jan-23 06:46 304 8 gusting 15 0.6
2019-Jan-23 06:31 278 8 gusting 15 1.1
2019-Jan-23 06:16 290 7 gusting 18 1.1
2019-Jan-23 05:46 262 7 gusting 16 1.1
2019-Jan-23 05:30 269 8 gusting 15 1.1
2019-Jan-23 05:16 270 8 gusting 15 1.1
2019-Jan-23 04:46 270 9 gusting 15 1.1
2019-Jan-23 04:30 264 9 gusting 19 1.1
2019-Jan-23 04:01 283 7 gusting 13 1.1
2019-Jan-23 03:45 277 6 gusting 13 1.1
2019-Jan-23 03:30 253 8 gusting 14 1.1
2019-Jan-23 03:16 237 9 gusting 17 1.1
2019-Jan-23 03:01 250 9 gusting 18 1.1
2019-Jan-23 02:46 262 7 gusting 14 1.7
2019-Jan-23 02:15 215 9 gusting 17 1.7
2019-Jan-23 02:00 252 7 gusting 13 1.7
2019-Jan-23 01:45 281 8 gusting 16 1.7
2019-Jan-23 01:30 229 7 gusting 14 1.7
2019-Jan-23 01:15 259 7 gusting 14 1.7
2019-Jan-23 01:00 255 8 gusting 13 1.7
2019-Jan-23 00:30 285 9 gusting 16 1.7
2019-Jan-23 00:18 263 12 gusting 19 1.7
2019-Jan-23 00:00 273 11 gusting 19 1.7
2019-Jan-22 23:45 249 11 gusting 19 1.1
2019-Jan-22 23:31 275 6 gusting 18 1.1
2019-Jan-22 23:17 276 7 gusting 16 1.1
2019-Jan-22 23:01 263 6 gusting 13 1.1
2019-Jan-22 22:47 266 6 gusting 12 0.6
2019-Jan-22 22:31 280 3 gusting 11 0.6
2019-Jan-22 22:16 266 4 gusting 11 0.6
2019-Jan-22 22:01 260 5 gusting 9 0.6
2019-Jan-22 21:46 220 6 gusting 13 0.6
2019-Jan-22 21:31 236 6 gusting 12 -0.0
2019-Jan-22 21:16 266 6 gusting 13 -0.0
2019-Jan-22 21:01 229 5 gusting 13 -0.0
2019-Jan-22 20:46 246 5 gusting 9 -0.0
2019-Jan-22 20:31 251 5 gusting 12 -0.0
2019-Jan-22 20:16 225 4 gusting 7 -0.0
2019-Jan-22 20:01 224 5 gusting 11 -0.0
2019-Jan-22 19:46 237 5 gusting 9 -0.0
2019-Jan-22 19:30 237 5 gusting 11 -0.0
2019-Jan-22 19:16 255 7 gusting 13 0.6
2019-Jan-22 19:00 235 6 gusting 12 0.6
2019-Jan-22 18:46 262 5 gusting 10 0.6
2019-Jan-22 18:31 257 6 gusting 12 -0.0
2019-Jan-22 18:16 266 10 gusting 16 0.6
2019-Jan-22 18:01 252 8 gusting 14 0.6
2019-Jan-22 17:45 257 5 gusting 13 0.6
2019-Jan-22 17:31 264 5 gusting 11 0.6
2019-Jan-22 17:15 246 6 gusting 13 0.6
2019-Jan-22 17:01 255 7 gusting 17 1.1
2019-Jan-22 16:46 254 8 gusting 16 2.2
2019-Jan-22 16:31 269 11 gusting 18 2.2
2019-Jan-22 16:15 259 10 gusting 16 1.7
2019-Jan-22 16:00 296 13 gusting 19 2.2
2019-Jan-22 15:45 296 11 gusting 19 2.2
2019-Jan-22 15:30 279 10 gusting 15 2.2
2019-Jan-22 15:15 296 9 gusting 18 2.8
2019-Jan-22 15:00 281 11 gusting 15 3.3
2019-Jan-22 14:45 220 9 gusting 17 3.3
2019-Jan-22 14:30 252 8 gusting 15 2.8
2019-Jan-22 14:15 337 6 gusting 15 2.2
2019-Jan-22 14:00 308 6 gusting 18 2.2
2019-Jan-22 13:45 297 6 gusting 14 2.2
2019-Jan-22 13:30 299 7 gusting 12 1.7
2019-Jan-22 13:15 304 5 gusting 11 1.7
2019-Jan-22 13:01 297 6 gusting 12 2.2
2019-Jan-22 12:46 268 8 gusting 13 1.7
2019-Jan-22 12:31 259 9 gusting 15 2.2
2019-Jan-22 12:18 245 9 gusting 15 2.2
2019-Jan-22 12:03 320 8 gusting 15 2.2
2019-Jan-22 11:46 278 8 gusting 13 2.8
2019-Jan-22 11:31 311 6 gusting 11 2.8
2019-Jan-22 11:16 259 4 gusting 9 2.2
2019-Jan-22 11:01 236 6 gusting 9 2.2
2019-Jan-22 10:46 232 4 gusting 9 2.2
2019-Jan-22 10:30 229 4 gusting 10 2.2
2019-Jan-22 10:16 256 5 gusting 8 1.7
2019-Jan-22 10:01 244 5 gusting 8 1.1
2019-Jan-22 09:45 247 4 gusting 10 0.6
2019-Jan-22 09:31 212 4 gusting 8 0.6
2019-Jan-22 09:15 220 2 gusting 7 -0.0
2019-Jan-22 09:00 222 5 gusting 7 -0.0
2019-Jan-22 08:45 190 5 gusting 7 -0.6
2019-Jan-22 08:30 218 4 gusting 8 -0.6
2019-Jan-22 08:16 205 3 gusting 7 -0.6
2019-Jan-22 08:01 219 4 gusting 7 -0.6
2019-Jan-22 07:30 229 3 gusting 6 -1.1
2019-Jan-22 07:15 222 4 gusting 7 -1.1
2019-Jan-22 07:00 224 4 gusting 7 -1.1
2019-Jan-22 06:45 213 3 gusting 7 -0.6
2019-Jan-22 06:30 244 2 gusting 6 -1.1
2019-Jan-22 06:15 243 3 gusting 6 -1.1
2019-Jan-22 05:45 240 2 gusting 7 -0.6
2019-Jan-22 05:30 228 1 gusting 5 -1.1
2019-Jan-22 05:15 215 3 gusting 5 -1.1
2019-Jan-22 05:00 217 3 gusting 5 -1.1
2019-Jan-22 04:45 221 3 gusting 6 -1.1
2019-Jan-22 04:30 225 3 gusting 6 -1.1
2019-Jan-22 04:02 221 2 gusting 6 -1.7
2019-Jan-22 03:47 202 1 gusting 3 -1.7
2019-Jan-22 03:31 198 0 gusting 3 -1.7
2019-Jan-22 03:16 174 0 gusting 1 -1.7
2019-Jan-22 03:03 189 1 gusting 2 -1.7
2019-Jan-22 02:46 200 -2.2
2019-Jan-22 02:31 205 0 gusting 2 -1.7
2019-Jan-22 02:16 214 0 gusting 2 -1.7
2019-Jan-22 02:01 220 0 gusting 3 -1.1
2019-Jan-22 01:47 221 0 gusting 3 -1.1
2019-Jan-22 01:31 219 0 gusting 2 -1.1
2019-Jan-22 01:16 236 0 gusting 2 -1.1
2019-Jan-22 01:01 214 0 gusting 3 -1.1
2019-Jan-22 00:46 216 0 gusting 2 -0.6
2019-Jan-22 00:30 258 2 gusting 4 -0.0
2019-Jan-22 00:16 291 2 gusting 4 -0.0
2019-Jan-22 00:00 256 0 gusting 2 -0.0
2019-Jan-21 23:46 264 -0.0
2019-Jan-21 23:30 222 0 gusting 2 -0.6
2019-Jan-21 23:15 217 2 gusting 4 -0.6
2019-Jan-21 23:00 174 0 gusting 3 -0.6
2019-Jan-21 22:45 226 -0.6
2019-Jan-21 22:30 247 0 gusting 4 -0.6
2019-Jan-21 22:15 250 -0.6
2019-Jan-21 22:00 235 0 gusting 3 -0.6
2019-Jan-21 21:45 238 -0.0
2019-Jan-21 21:30 247 -0.6
2019-Jan-21 21:15 213 -0.6
2019-Jan-21 21:00 238 -0.0